sensor_id;sensor_type;location;lat;lon;timestamp;P1;durP1;ratioP1;P2;durP2;ratioP2
25191;SDS011;13143;50.924;5.320;2022-09-09T00:04:03;3.25;;;1.17;;
25191;SDS011;13143;50.924;5.320;2022-09-09T00:09:23;3.83;;;1.20;;
25191;SDS011;13143;50.924;5.320;2022-09-09T00:11:52;2.80;;;0.90;;
25191;SDS011;13143;50.924;5.320;2022-09-09T00:14:26;7.18;;;1.50;;
25191;SDS011;13143;50.924;5.320;2022-09-09T00:17:14;3.22;;;1.10;;
25191;SDS011;13143;50.924;5.320;2022-09-09T00:22:25;3.42;;;1.20;;
25191;SDS011;13143;50.924;5.320;2022-09-09T00:24:56;3.80;;;1.40;;
25191;SDS011;13143;50.924;5.320;2022-09-09T00:27:47;4.28;;;1.65;;
25191;SDS011;13143;50.924;5.320;2022-09-09T00:30:22;5.03;;;1.38;;
25191;SDS011;13143;50.924;5.320;2022-09-09T00:32:59;7.60;;;1.73;;
25191;SDS011;13143;50.924;5.320;2022-09-09T00:35:34;6.07;;;1.60;;
25191;SDS011;13143;50.924;5.320;2022-09-09T00:40:41;3.20;;;1.70;;
25191;SDS011;13143;50.924;5.320;2022-09-09T00:43:35;9.27;;;2.08;;
25191;SDS011;13143;50.924;5.320;2022-09-09T00:52:16;2.97;;;1.48;;
25191;SDS011;13143;50.924;5.320;2022-09-09T00:57:25;6.07;;;2.25;;
25191;SDS011;13143;50.924;5.320;2022-09-09T01:11:26;7.68;;;2.10;;
25191;SDS011;13143;50.924;5.320;2022-09-09T01:14:20;5.30;;;1.88;;
25191;SDS011;13143;50.924;5.320;2022-09-09T01:16:56;3.60;;;1.42;;
25191;SDS011;13143;50.924;5.320;2022-09-09T01:25:28;11.02;;;2.13;;
25191;SDS011;13143;50.924;5.320;2022-09-09T01:28:17;5.95;;;1.50;;
25191;SDS011;13143;50.924;5.320;2022-09-09T01:30:47;10.93;;;2.80;;
25191;SDS011;13143;50.924;5.320;2022-09-09T01:33:14;7.78;;;1.70;;
25191;SDS011;13143;50.924;5.320;2022-09-09T01:38:25;8.63;;;1.60;;
25191;SDS011;13143;50.924;5.320;2022-09-09T01:40:53;5.95;;;1.63;;
25191;SDS011;13143;50.924;5.320;2022-09-09T01:43:22;2.65;;;1.42;;
25191;SDS011;13143;50.924;5.320;2022-09-09T01:45:51;5.75;;;1.80;;
25191;SDS011;13143;50.924;5.320;2022-09-09T01:48:19;8.07;;;1.75;;
25191;SDS011;13143;50.924;5.320;2022-09-09T01:50:47;4.75;;;1.50;;
25191;SDS011;13143;50.924;5.320;2022-09-09T01:53:13;6.63;;;1.75;;
25191;SDS011;13143;50.924;5.320;2022-09-09T01:55:42;6.35;;;1.70;;
25191;SDS011;13143;50.924;5.320;2022-09-09T02:01:09;6.50;;;1.70;;
25191;SDS011;13143;50.924;5.320;2022-09-09T02:03:38;10.45;;;1.88;;
25191;SDS011;13143;50.924;5.320;2022-09-09T02:06:13;8.98;;;1.83;;
25191;SDS011;13143;50.924;5.320;2022-09-09T02:08:50;8.73;;;1.90;;
25191;SDS011;13143;50.924;5.320;2022-09-09T02:11:21;6.65;;;1.95;;
25191;SDS011;13143;50.924;5.320;2022-09-09T02:13:49;9.57;;;2.65;;
25191;SDS011;13143;50.924;5.320;2022-09-09T02:16:21;8.43;;;2.13;;
25191;SDS011;13143;50.924;5.320;2022-09-09T02:18:51;6.32;;;2.20;;
25191;SDS011;13143;50.924;5.320;2022-09-09T02:21:31;8.55;;;2.10;;
25191;SDS011;13143;50.924;5.320;2022-09-09T02:24:00;8.73;;;2.45;;
25191;SDS011;13143;50.924;5.320;2022-09-09T02:26:30;8.88;;;1.98;;
25191;SDS011;13143;50.924;5.320;2022-09-09T02:28:59;11.48;;;2.47;;
25191;SDS011;13143;50.924;5.320;2022-09-09T02:31:28;9.30;;;2.28;;
25191;SDS011;13143;50.924;5.320;2022-09-09T02:33:56;12.45;;;2.20;;
25191;SDS011;13143;50.924;5.320;2022-09-09T02:36:25;17.58;;;2.30;;
25191;SDS011;13143;50.924;5.320;2022-09-09T02:38:54;9.27;;;2.80;;
25191;SDS011;13143;50.924;5.320;2022-09-09T02:41:23;11.35;;;2.42;;
25191;SDS011;13143;50.924;5.320;2022-09-09T02:43:52;9.80;;;2.50;;
25191;SDS011;13143;50.924;5.320;2022-09-09T02:49:00;9.45;;;2.10;;
25191;SDS011;13143;50.924;5.320;2022-09-09T02:51:51;10.82;;;2.03;;
25191;SDS011;13143;50.924;5.320;2022-09-09T02:54:28;8.75;;;1.80;;
25191;SDS011;13143;50.924;5.320;2022-09-09T02:57:03;16.05;;;2.65;;
25191;SDS011;13143;50.924;5.320;2022-09-09T02:59:30;12.23;;;2.10;;
25191;SDS011;13143;50.924;5.320;2022-09-09T03:01:56;9.35;;;1.80;;
25191;SDS011;13143;50.924;5.320;2022-09-09T03:04:21;5.97;;;1.88;;
25191;SDS011;13143;50.924;5.320;2022-09-09T03:06:49;8.15;;;2.08;;
25191;SDS011;13143;50.924;5.320;2022-09-09T03:09:16;9.70;;;1.67;;
25191;SDS011;13143;50.924;5.320;2022-09-09T03:11:42;8.18;;;1.85;;
25191;SDS011;13143;50.924;5.320;2022-09-09T03:14:07;5.85;;;1.67;;
25191;SDS011;13143;50.924;5.320;2022-09-09T03:16:33;8.80;;;1.60;;
25191;SDS011;13143;50.924;5.320;2022-09-09T03:18:59;5.85;;;1.77;;
25191;SDS011;13143;50.924;5.320;2022-09-09T03:21:25;11.32;;;1.83;;
25191;SDS011;13143;50.924;5.320;2022-09-09T03:23:51;10.38;;;1.75;;
25191;SDS011;13143;50.924;5.320;2022-09-09T03:26:17;5.85;;;1.73;;
25191;SDS011;13143;50.924;5.320;2022-09-09T03:28:42;11.32;;;1.85;;
25191;SDS011;13143;50.924;5.320;2022-09-09T03:31:10;6.80;;;1.48;;
25191;SDS011;13143;50.924;5.320;2022-09-09T03:33:38;6.88;;;1.63;;
25191;SDS011;13143;50.924;5.320;2022-09-09T03:36:06;7.75;;;1.80;;
25191;SDS011;13143;50.924;5.320;2022-09-09T03:38:33;7.03;;;2.20;;
25191;SDS011;13143;50.924;5.320;2022-09-09T03:40:59;6.43;;;1.77;;
25191;SDS011;13143;50.924;5.320;2022-09-09T03:43:26;9.65;;;2.10;;
25191;SDS011;13143;50.924;5.320;2022-09-09T03:45:53;13.50;;;2.17;;
25191;SDS011;13143;50.924;5.320;2022-09-09T03:48:22;7.20;;;1.60;;
25191;SDS011;13143;50.924;5.320;2022-09-09T03:50:49;11.23;;;2.15;;
25191;SDS011;13143;50.924;5.320;2022-09-09T03:53:16;6.65;;;1.42;;
25191;SDS011;13143;50.924;5.320;2022-09-09T03:55:47;11.65;;;1.63;;
25191;SDS011;13143;50.924;5.320;2022-09-09T03:58:19;7.63;;;1.88;;
25191;SDS011;13143;50.924;5.320;2022-09-09T04:00:54;14.70;;;2.60;;
25191;SDS011;13143;50.924;5.320;2022-09-09T04:03:28;10.18;;;2.55;;
25191;SDS011;13143;50.924;5.320;2022-09-09T04:05:55;10.60;;;1.75;;
25191;SDS011;13143;50.924;5.320;2022-09-09T04:08:22;9.65;;;2.10;;
25191;SDS011;13143;50.924;5.320;2022-09-09T04:10:51;12.77;;;1.80;;
25191;SDS011;13143;50.924;5.320;2022-09-09T04:13:18;11.18;;;1.90;;
25191;SDS011;13143;50.924;5.320;2022-09-09T04:15:49;8.48;;;1.63;;
25191;SDS011;13143;50.924;5.320;2022-09-09T04:18:16;10.70;;;1.95;;
25191;SDS011;13143;50.924;5.320;2022-09-09T04:20:42;8.60;;;2.03;;
25191;SDS011;13143;50.924;5.320;2022-09-09T04:23:08;8.07;;;2.15;;
25191;SDS011;13143;50.924;5.320;2022-09-09T04:25:34;10.45;;;2.22;;
25191;SDS011;13143;50.924;5.320;2022-09-09T04:27:59;8.70;;;1.80;;
25191;SDS011;13143;50.924;5.320;2022-09-09T04:30:25;10.88;;;2.15;;
25191;SDS011;13143;50.924;5.320;2022-09-09T04:32:52;8.32;;;2.20;;
25191;SDS011;13143;50.924;5.320;2022-09-09T04:35:18;12.43;;;2.20;;
25191;SDS011;13143;50.924;5.320;2022-09-09T04:37:45;11.20;;;2.03;;
25191;SDS011;13143;50.924;5.320;2022-09-09T04:40:12;7.80;;;1.80;;
25191;SDS011;13143;50.924;5.320;2022-09-09T04:42:38;14.52;;;2.08;;
25191;SDS011;13143;50.924;5.320;2022-09-09T04:45:04;11.02;;;2.25;;
25191;SDS011;13143;50.924;5.320;2022-09-09T04:47:31;9.40;;;2.85;;
25191;SDS011;13143;50.924;5.320;2022-09-09T04:49:59;13.07;;;2.13;;
25191;SDS011;13143;50.924;5.320;2022-09-09T04:52:25;12.95;;;2.20;;
25191;SDS011;13143;50.924;5.320;2022-09-09T04:54:51;9.65;;;2.55;;
25191;SDS011;13143;50.924;5.320;2022-09-09T04:57:19;13.73;;;2.25;;
25191;SDS011;13143;50.924;5.320;2022-09-09T04:59:44;12.77;;;2.95;;
25191;SDS011;13143;50.924;5.320;2022-09-09T05:02:11;9.10;;;2.08;;
25191;SDS011;13143;50.924;5.320;2022-09-09T05:04:36;15.57;;;2.65;;
25191;SDS011;13143;50.924;5.320;2022-09-09T05:07:02;12.20;;;2.38;;
25191;SDS011;13143;50.924;5.320;2022-09-09T05:09:28;12.65;;;2.00;;
25191;SDS011;13143;50.924;5.320;2022-09-09T05:11:54;10.13;;;2.00;;
25191;SDS011;13143;50.924;5.320;2022-09-09T05:14:20;13.52;;;1.90;;
25191;SDS011;13143;50.924;5.320;2022-09-09T05:16:47;10.43;;;1.83;;
25191;SDS011;13143;50.924;5.320;2022-09-09T05:19:14;10.43;;;2.03;;
25191;SDS011;13143;50.924;5.320;2022-09-09T05:21:43;11.10;;;2.67;;
25191;SDS011;13143;50.924;5.320;2022-09-09T05:24:10;10.10;;;2.22;;
25191;SDS011;13143;50.924;5.320;2022-09-09T05:26:36;12.48;;;2.08;;
25191;SDS011;13143;50.924;5.320;2022-09-09T05:29:01;11.23;;;2.28;;
25191;SDS011;13143;50.924;5.320;2022-09-09T05:31:29;13.45;;;2.47;;
25191;SDS011;13143;50.924;5.320;2022-09-09T05:33:55;17.38;;;3.00;;
25191;SDS011;13143;50.924;5.320;2022-09-09T05:36:21;16.15;;;2.30;;
25191;SDS011;13143;50.924;5.320;2022-09-09T05:38:48;13.80;;;2.38;;
25191;SDS011;13143;50.924;5.320;2022-09-09T05:41:15;16.52;;;3.55;;
25191;SDS011;13143;50.924;5.320;2022-09-09T05:43:42;12.68;;;2.15;;
25191;SDS011;13143;50.924;5.320;2022-09-09T05:46:15;15.00;;;2.05;;
25191;SDS011;13143;50.924;5.320;2022-09-09T05:48:43;15.38;;;2.83;;
25191;SDS011;13143;50.924;5.320;2022-09-09T05:51:16;13.30;;;2.60;;
25191;SDS011;13143;50.924;5.320;2022-09-09T05:53:51;11.90;;;2.22;;
25191;SDS011;13143;50.924;5.320;2022-09-09T05:56:19;13.82;;;2.47;;
25191;SDS011;13143;50.924;5.320;2022-09-09T05:58:46;13.73;;;2.35;;
25191;SDS011;13143;50.924;5.320;2022-09-09T06:01:15;11.98;;;2.50;;
25191;SDS011;13143;50.924;5.320;2022-09-09T06:03:42;18.23;;;2.50;;
25191;SDS011;13143;50.924;5.320;2022-09-09T06:06:11;12.38;;;2.55;;
25191;SDS011;13143;50.924;5.320;2022-09-09T06:08:39;14.35;;;2.47;;
25191;SDS011;13143;50.924;5.320;2022-09-09T06:11:08;11.57;;;2.28;;
25191;SDS011;13143;50.924;5.320;2022-09-09T06:13:36;13.23;;;2.47;;
25191;SDS011;13143;50.924;5.320;2022-09-09T06:16:03;16.15;;;2.60;;
25191;SDS011;13143;50.924;5.320;2022-09-09T06:18:34;11.52;;;2.33;;
25191;SDS011;13143;50.924;5.320;2022-09-09T06:21:03;13.80;;;2.35;;
25191;SDS011;13143;50.924;5.320;2022-09-09T06:23:31;11.82;;;2.40;;
25191;SDS011;13143;50.924;5.320;2022-09-09T06:26:07;13.68;;;2.60;;
25191;SDS011;13143;50.924;5.320;2022-09-09T06:28:37;12.05;;;2.28;;
25191;SDS011;13143;50.924;5.320;2022-09-09T06:31:04;14.77;;;2.35;;
25191;SDS011;13143;50.924;5.320;2022-09-09T06:33:38;19.33;;;2.50;;
25191;SDS011;13143;50.924;5.320;2022-09-09T06:36:13;12.80;;;2.42;;
25191;SDS011;13143;50.924;5.320;2022-09-09T06:38:41;14.75;;;2.60;;
25191;SDS011;13143;50.924;5.320;2022-09-09T06:41:08;18.42;;;2.60;;
25191;SDS011;13143;50.924;5.320;2022-09-09T06:43:35;11.32;;;2.10;;
25191;SDS011;13143;50.924;5.320;2022-09-09T06:46:05;14.77;;;2.10;;
25191;SDS011;13143;50.924;5.320;2022-09-09T06:48:31;13.65;;;2.22;;
25191;SDS011;13143;50.924;5.320;2022-09-09T06:51:04;15.40;;;2.28;;
25191;SDS011;13143;50.924;5.320;2022-09-09T06:53:31;15.18;;;2.33;;
25191;SDS011;13143;50.924;5.320;2022-09-09T06:55:59;8.48;;;1.85;;
25191;SDS011;13143;50.924;5.320;2022-09-09T06:58:46;19.88;;;2.47;;
25191;SDS011;13143;50.924;5.320;2022-09-09T07:01:17;13.38;;;2.60;;
25191;SDS011;13143;50.924;5.320;2022-09-09T07:03:46;16.05;;;2.63;;
25191;SDS011;13143;50.924;5.320;2022-09-09T07:06:17;15.52;;;2.28;;
25191;SDS011;13143;50.924;5.320;2022-09-09T07:08:52;17.10;;;2.88;;
25191;SDS011;13143;50.924;5.320;2022-09-09T07:11:20;10.68;;;1.88;;
25191;SDS011;13143;50.924;5.320;2022-09-09T07:13:47;17.00;;;2.47;;
25191;SDS011;13143;50.924;5.320;2022-09-09T07:16:14;14.45;;;2.50;;
25191;SDS011;13143;50.924;5.320;2022-09-09T07:18:41;12.45;;;2.50;;
25191;SDS011;13143;50.924;5.320;2022-09-09T07:21:09;9.70;;;2.17;;
25191;SDS011;13143;50.924;5.320;2022-09-09T07:23:36;13.90;;;2.22;;
25191;SDS011;13143;50.924;5.320;2022-09-09T07:26:06;15.25;;;2.53;;
25191;SDS011;13143;50.924;5.320;2022-09-09T07:28:40;16.65;;;2.40;;
25191;SDS011;13143;50.924;5.320;2022-09-09T07:31:06;13.07;;;2.10;;
25191;SDS011;13143;50.924;5.320;2022-09-09T07:33:38;12.93;;;1.95;;
25191;SDS011;13143;50.924;5.320;2022-09-09T07:36:10;17.08;;;2.10;;
25191;SDS011;13143;50.924;5.320;2022-09-09T07:38:43;17.10;;;2.72;;
25191;SDS011;13143;50.924;5.320;2022-09-09T07:41:16;12.32;;;2.75;;
25191;SDS011;13143;50.924;5.320;2022-09-09T07:43:45;11.30;;;2.13;;
25191;SDS011;13143;50.924;5.320;2022-09-09T07:46:13;13.60;;;1.95;;
25191;SDS011;13143;50.924;5.320;2022-09-09T07:48:44;14.05;;;2.53;;
25191;SDS011;13143;50.924;5.320;2022-09-09T07:51:12;17.58;;;2.35;;
25191;SDS011;13143;50.924;5.320;2022-09-09T07:53:42;11.43;;;2.40;;
25191;SDS011;13143;50.924;5.320;2022-09-09T07:56:12;13.85;;;2.05;;
25191;SDS011;13143;50.924;5.320;2022-09-09T07:58:40;12.48;;;2.53;;
25191;SDS011;13143;50.924;5.320;2022-09-09T08:01:15;11.45;;;2.22;;
25191;SDS011;13143;50.924;5.320;2022-09-09T08:03:47;13.30;;;2.47;;
25191;SDS011;13143;50.924;5.320;2022-09-09T08:06:18;13.05;;;2.25;;
25191;SDS011;13143;50.924;5.320;2022-09-09T08:08:44;11.20;;;2.30;;
25191;SDS011;13143;50.924;5.320;2022-09-09T08:11:11;16.42;;;2.42;;
25191;SDS011;13143;50.924;5.320;2022-09-09T08:13:40;14.57;;;2.30;;
25191;SDS011;13143;50.924;5.320;2022-09-09T08:16:07;11.68;;;1.98;;
25191;SDS011;13143;50.924;5.320;2022-09-09T08:18:41;14.80;;;2.20;;
25191;SDS011;13143;50.924;5.320;2022-09-09T08:21:12;12.20;;;2.30;;
25191;SDS011;13143;50.924;5.320;2022-09-09T08:23:43;14.57;;;2.63;;
25191;SDS011;13143;50.924;5.320;2022-09-09T08:28:41;12.02;;;2.83;;
25191;SDS011;13143;50.924;5.320;2022-09-09T08:36:09;12.80;;;2.60;;
25191;SDS011;13143;50.924;5.320;2022-09-09T08:38:36;22.08;;;3.42;;
25191;SDS011;13143;50.924;5.320;2022-09-09T08:43:58;11.48;;;2.63;;
25191;SDS011;13143;50.924;5.320;2022-09-09T08:46:41;9.85;;;2.17;;
25191;SDS011;13143;50.924;5.320;2022-09-09T08:51:53;13.45;;;2.10;;
25191;SDS011;13143;50.924;5.320;2022-09-09T08:54:22;15.13;;;2.33;;
25191;SDS011;13143;50.924;5.320;2022-09-09T08:56:48;13.05;;;2.33;;
25191;SDS011;13143;50.924;5.320;2022-09-09T08:59:16;10.20;;;2.30;;
25191;SDS011;13143;50.924;5.320;2022-09-09T09:09:54;13.25;;;2.33;;
25191;SDS011;13143;50.924;5.320;2022-09-09T09:12:27;14.10;;;2.45;;
25191;SDS011;13143;50.924;5.320;2022-09-09T09:14:58;14.20;;;1.88;;
25191;SDS011;13143;50.924;5.320;2022-09-09T09:17:25;14.10;;;2.50;;
25191;SDS011;13143;50.924;5.320;2022-09-09T09:19:56;14.85;;;2.25;;
25191;SDS011;13143;50.924;5.320;2022-09-09T09:22:32;14.63;;;2.30;;
25191;SDS011;13143;50.924;5.320;2022-09-09T09:30:54;7.82;;;1.45;;
25191;SDS011;13143;50.924;5.320;2022-09-09T09:33:55;10.37;;;1.50;;
25191;SDS011;13143;50.924;5.320;2022-09-09T09:36:34;8.30;;;1.55;;
25191;SDS011;13143;50.924;5.320;2022-09-09T09:39:21;8.15;;;1.55;;
25191;SDS011;13143;50.924;5.320;2022-09-09T09:41:52;11.43;;;1.80;;
25191;SDS011;13143;50.924;5.320;2022-09-09T09:44:28;12.68;;;2.30;;
25191;SDS011;13143;50.924;5.320;2022-09-09T09:49:55;6.65;;;1.88;;
25191;SDS011;13143;50.924;5.320;2022-09-09T09:52:27;7.35;;;1.60;;
25191;SDS011;13143;50.924;5.320;2022-09-09T09:54:55;8.75;;;1.98;;
25191;SDS011;13143;50.924;5.320;2022-09-09T09:57:27;6.43;;;1.65;;
25191;SDS011;13143;50.924;5.320;2022-09-09T10:00:11;8.27;;;1.90;;
25191;SDS011;13143;50.924;5.320;2022-09-09T10:02:40;7.82;;;1.50;;
25191;SDS011;13143;50.924;5.320;2022-09-09T10:07:39;6.75;;;1.65;;
25191;SDS011;13143;50.924;5.320;2022-09-09T10:10:05;8.88;;;1.70;;
25191;SDS011;13143;50.924;5.320;2022-09-09T10:12:37;8.02;;;1.63;;
25191;SDS011;13143;50.924;5.320;2022-09-09T10:23:11;11.68;;;2.72;;
25191;SDS011;13143;50.924;5.320;2022-09-09T10:39:53;12.05;;;2.60;;
25191;SDS011;13143;50.924;5.320;2022-09-09T10:42:43;9.75;;;2.13;;
25191;SDS011;13143;50.924;5.320;2022-09-09T10:50:54;8.68;;;2.60;;
25191;SDS011;13143;50.924;5.320;2022-09-09T10:56:37;11.52;;;2.58;;
25191;SDS011;13143;50.924;5.320;2022-09-09T10:59:12;10.15;;;2.35;;
25191;SDS011;13143;50.924;5.320;2022-09-09T11:01:48;9.27;;;2.53;;
25191;SDS011;13143;50.924;5.320;2022-09-09T11:04:17;11.70;;;2.20;;
25191;SDS011;13143;50.924;5.320;2022-09-09T11:06:50;11.02;;;2.33;;
25191;SDS011;13143;50.924;5.320;2022-09-09T11:09:23;10.73;;;2.70;;
25191;SDS011;13143;50.924;5.320;2022-09-09T11:11:56;12.10;;;2.58;;
25191;SDS011;13143;50.924;5.320;2022-09-09T11:14:32;8.82;;;2.45;;
25191;SDS011;13143;50.924;5.320;2022-09-09T11:17:24;8.57;;;2.30;;
25191;SDS011;13143;50.924;5.320;2022-09-09T11:19:51;13.13;;;2.70;;
25191;SDS011;13143;50.924;5.320;2022-09-09T11:22:25;10.45;;;2.38;;
25191;SDS011;13143;50.924;5.320;2022-09-09T11:25:15;9.70;;;2.22;;
25191;SDS011;13143;50.924;5.320;2022-09-09T11:31:06;9.02;;;2.78;;
25191;SDS011;13143;50.924;5.320;2022-09-09T11:39:14;9.98;;;2.60;;
25191;SDS011;13143;50.924;5.320;2022-09-09T11:41:49;10.88;;;2.60;;
25191;SDS011;13143;50.924;5.320;2022-09-09T11:44:19;9.73;;;2.20;;
25191;SDS011;13143;50.924;5.320;2022-09-09T11:46:55;8.38;;;1.92;;
25191;SDS011;13143;50.924;5.320;2022-09-09T11:52:22;15.82;;;2.67;;
25191;SDS011;13143;50.924;5.320;2022-09-09T11:54:50;14.95;;;2.47;;
25191;SDS011;13143;50.924;5.320;2022-09-09T11:57:26;12.30;;;2.72;;
25191;SDS011;13143;50.924;5.320;2022-09-09T11:59:58;8.57;;;2.35;;
25191;SDS011;13143;50.924;5.320;2022-09-09T12:02:26;11.82;;;2.10;;
25191;SDS011;13143;50.924;5.320;2022-09-09T12:05:05;9.10;;;2.50;;
25191;SDS011;13143;50.924;5.320;2022-09-09T12:12:36;12.25;;;2.17;;
25191;SDS011;13143;50.924;5.320;2022-09-09T12:17:36;12.32;;;2.42;;
25191;SDS011;13143;50.924;5.320;2022-09-09T12:42:29;8.73;;;1.90;;
25191;SDS011;13143;50.924;5.320;2022-09-09T12:44:58;5.22;;;1.73;;
25191;SDS011;13143;50.924;5.320;2022-09-09T12:47:28;12.73;;;2.28;;
25191;SDS011;13143;50.924;5.320;2022-09-09T12:50:14;9.10;;;1.95;;
25191;SDS011;13143;50.924;5.320;2022-09-09T12:53:04;6.88;;;2.20;;
25191;SDS011;13143;50.924;5.320;2022-09-09T12:55:38;10.45;;;2.10;;
25191;SDS011;13143;50.924;5.320;2022-09-09T12:58:05;8.07;;;2.22;;
25191;SDS011;13143;50.924;5.320;2022-09-09T13:00:31;8.82;;;2.17;;
25191;SDS011;13143;50.924;5.320;2022-09-09T13:02:59;11.05;;;2.22;;
25191;SDS011;13143;50.924;5.320;2022-09-09T13:05:37;6.05;;;1.90;;
25191;SDS011;13143;50.924;5.320;2022-09-09T13:08:13;6.68;;;2.17;;
25191;SDS011;13143;50.924;5.320;2022-09-09T13:10:40;10.05;;;2.28;;
25191;SDS011;13143;50.924;5.320;2022-09-09T13:13:17;9.70;;;2.20;;
25191;SDS011;13143;50.924;5.320;2022-09-09T13:15:53;10.02;;;2.00;;
25191;SDS011;13143;50.924;5.320;2022-09-09T13:18:28;6.97;;;1.90;;
25191;SDS011;13143;50.924;5.320;2022-09-09T13:20:59;10.20;;;1.70;;
25191;SDS011;13143;50.924;5.320;2022-09-09T13:23:26;6.30;;;1.70;;
25191;SDS011;13143;50.924;5.320;2022-09-09T13:25:58;6.15;;;1.98;;
25191;SDS011;13143;50.924;5.320;2022-09-09T13:28:27;7.10;;;1.85;;
25191;SDS011;13143;50.924;5.320;2022-09-09T13:31:04;8.68;;;2.08;;
25191;SDS011;13143;50.924;5.320;2022-09-09T13:33:44;9.88;;;2.20;;
25191;SDS011;13143;50.924;5.320;2022-09-09T13:36:10;8.63;;;1.75;;
25191;SDS011;13143;50.924;5.320;2022-09-09T13:38:38;7.63;;;2.03;;
25191;SDS011;13143;50.924;5.320;2022-09-09T13:41:20;5.78;;;1.67;;
25191;SDS011;13143;50.924;5.320;2022-09-09T13:43:50;7.28;;;1.83;;
25191;SDS011;13143;50.924;5.320;2022-09-09T13:51:40;11.65;;;1.88;;
25191;SDS011;13143;50.924;5.320;2022-09-09T13:54:09;11.18;;;1.80;;
25191;SDS011;13143;50.924;5.320;2022-09-09T13:56:36;5.60;;;1.63;;
25191;SDS011;13143;50.924;5.320;2022-09-09T13:59:04;5.13;;;1.75;;
25191;SDS011;13143;50.924;5.320;2022-09-09T14:01:31;11.25;;;2.13;;
25191;SDS011;13143;50.924;5.320;2022-09-09T14:03:59;10.68;;;1.90;;
25191;SDS011;13143;50.924;5.320;2022-09-09T14:06:25;7.63;;;1.50;;
25191;SDS011;13143;50.924;5.320;2022-09-09T14:08:52;9.55;;;1.90;;
25191;SDS011;13143;50.924;5.320;2022-09-09T14:11:19;6.78;;;2.03;;
25191;SDS011;13143;50.924;5.320;2022-09-09T14:13:46;13.07;;;2.55;;
25191;SDS011;13143;50.924;5.320;2022-09-09T14:16:17;7.03;;;1.70;;
25191;SDS011;13143;50.924;5.320;2022-09-09T14:18:43;7.38;;;1.75;;
25191;SDS011;13143;50.924;5.320;2022-09-09T14:21:12;8.57;;;1.60;;
25191;SDS011;13143;50.924;5.320;2022-09-09T14:23:38;6.10;;;1.40;;
25191;SDS011;13143;50.924;5.320;2022-09-09T14:26:04;7.72;;;1.42;;
25191;SDS011;13143;50.924;5.320;2022-09-09T14:28:31;5.60;;;1.55;;
25191;SDS011;13143;50.924;5.320;2022-09-09T14:30:59;8.88;;;1.60;;
25191;SDS011;13143;50.924;5.320;2022-09-09T14:33:25;5.88;;;1.52;;
25191;SDS011;13143;50.924;5.320;2022-09-09T14:36:00;7.63;;;1.48;;
25191;SDS011;13143;50.924;5.320;2022-09-09T14:38:28;4.82;;;1.42;;
25191;SDS011;13143;50.924;5.320;2022-09-09T14:40:55;6.82;;;1.83;;
25191;SDS011;13143;50.924;5.320;2022-09-09T14:43:21;4.68;;;1.80;;
25191;SDS011;13143;50.924;5.320;2022-09-09T14:45:47;3.58;;;1.50;;
25191;SDS011;13143;50.924;5.320;2022-09-09T14:48:13;4.40;;;1.73;;
25191;SDS011;13143;50.924;5.320;2022-09-09T14:50:40;6.00;;;1.35;;
25191;SDS011;13143;50.924;5.320;2022-09-09T14:53:07;5.65;;;1.58;;
25191;SDS011;13143;50.924;5.320;2022-09-09T14:55:34;3.92;;;1.40;;
25191;SDS011;13143;50.924;5.320;2022-09-09T14:58:00;7.28;;;1.30;;
25191;SDS011;13143;50.924;5.320;2022-09-09T15:00:25;4.35;;;1.40;;
25191;SDS011;13143;50.924;5.320;2022-09-09T15:02:52;6.53;;;1.50;;
25191;SDS011;13143;50.924;5.320;2022-09-09T15:05:18;6.03;;;1.33;;
25191;SDS011;13143;50.924;5.320;2022-09-09T15:07:44;6.30;;;1.27;;
25191;SDS011;13143;50.924;5.320;2022-09-09T15:10:10;4.82;;;1.63;;
25191;SDS011;13143;50.924;5.320;2022-09-09T15:12:36;6.25;;;1.30;;
25191;SDS011;13143;50.924;5.320;2022-09-09T15:15:03;6.22;;;1.65;;
25191;SDS011;13143;50.924;5.320;2022-09-09T15:17:29;12.00;;;1.83;;
25191;SDS011;13143;50.924;5.320;2022-09-09T15:19:56;5.53;;;1.65;;
25191;SDS011;13143;50.924;5.320;2022-09-09T15:22:21;6.75;;;1.70;;
25191;SDS011;13143;50.924;5.320;2022-09-09T15:24:49;6.28;;;1.55;;
25191;SDS011;13143;50.924;5.320;2022-09-09T15:27:15;5.32;;;1.35;;
25191;SDS011;13143;50.924;5.320;2022-09-09T15:29:41;6.40;;;1.65;;
25191;SDS011;13143;50.924;5.320;2022-09-09T15:32:06;7.53;;;2.15;;
25191;SDS011;13143;50.924;5.320;2022-09-09T15:34:32;7.53;;;1.40;;
25191;SDS011;13143;50.924;5.320;2022-09-09T15:36:58;7.90;;;1.70;;
25191;SDS011;13143;50.924;5.320;2022-09-09T15:39:24;4.65;;;1.70;;
25191;SDS011;13143;50.924;5.320;2022-09-09T15:41:50;5.05;;;1.33;;
25191;SDS011;13143;50.924;5.320;2022-09-09T15:44:16;7.50;;;1.63;;
25191;SDS011;13143;50.924;5.320;2022-09-09T15:46:50;7.80;;;1.50;;
25191;SDS011;13143;50.924;5.320;2022-09-09T15:49:24;6.93;;;1.73;;
25191;SDS011;13143;50.924;5.320;2022-09-09T15:51:52;6.80;;;1.65;;
25191;SDS011;13143;50.924;5.320;2022-09-09T15:54:20;3.60;;;1.33;;
25191;SDS011;13143;50.924;5.320;2022-09-09T15:56:55;8.10;;;1.45;;
25191;SDS011;13143;50.924;5.320;2022-09-09T15:59:23;4.60;;;2.08;;
25191;SDS011;13143;50.924;5.320;2022-09-09T16:01:49;6.70;;;1.40;;
25191;SDS011;13143;50.924;5.320;2022-09-09T16:04:18;6.05;;;1.33;;
25191;SDS011;13143;50.924;5.320;2022-09-09T16:06:48;5.28;;;1.55;;
25191;SDS011;13143;50.924;5.320;2022-09-09T16:09:15;5.90;;;1.50;;
25191;SDS011;13143;50.924;5.320;2022-09-09T16:11:41;9.45;;;1.45;;
25191;SDS011;13143;50.924;5.320;2022-09-09T16:14:07;6.20;;;1.60;;
25191;SDS011;13143;50.924;5.320;2022-09-09T16:16:33;7.55;;;1.73;;
25191;SDS011;13143;50.924;5.320;2022-09-09T16:19:03;5.32;;;1.40;;
25191;SDS011;13143;50.924;5.320;2022-09-09T16:21:38;5.13;;;1.50;;
25191;SDS011;13143;50.924;5.320;2022-09-09T16:24:10;6.45;;;1.45;;
25191;SDS011;13143;50.924;5.320;2022-09-09T16:26:38;8.48;;;1.90;;
25191;SDS011;13143;50.924;5.320;2022-09-09T16:29:05;4.70;;;1.38;;
25191;SDS011;13143;50.924;5.320;2022-09-09T16:31:31;6.20;;;1.67;;
25191;SDS011;13143;50.924;5.320;2022-09-09T16:33:57;3.30;;;1.30;;
25191;SDS011;13143;50.924;5.320;2022-09-09T16:36:27;8.40;;;1.50;;
25191;SDS011;13143;50.924;5.320;2022-09-09T16:38:56;3.72;;;1.23;;
25191;SDS011;13143;50.924;5.320;2022-09-09T16:41:23;7.57;;;1.40;;
25191;SDS011;13143;50.924;5.320;2022-09-09T16:44:08;6.35;;;1.83;;
25191;SDS011;13143;50.924;5.320;2022-09-09T16:46:36;6.93;;;1.77;;
25191;SDS011;13143;50.924;5.320;2022-09-09T16:49:07;9.85;;;1.60;;
25191;SDS011;13143;50.924;5.320;2022-09-09T16:51:35;6.88;;;1.45;;
25191;SDS011;13143;50.924;5.320;2022-09-09T16:54:05;5.05;;;1.40;;
25191;SDS011;13143;50.924;5.320;2022-09-09T16:56:38;7.50;;;1.58;;
25191;SDS011;13143;50.924;5.320;2022-09-09T16:59:12;5.70;;;1.52;;
25191;SDS011;13143;50.924;5.320;2022-09-09T17:01:43;2.92;;;1.10;;
25191;SDS011;13143;50.924;5.320;2022-09-09T17:04:11;5.18;;;1.35;;
25191;SDS011;13143;50.924;5.320;2022-09-09T17:06:40;9.70;;;2.13;;
25191;SDS011;13143;50.924;5.320;2022-09-09T17:09:09;5.05;;;1.55;;
25191;SDS011;13143;50.924;5.320;2022-09-09T17:11:36;8.15;;;1.25;;
25191;SDS011;13143;50.924;5.320;2022-09-09T17:14:03;6.85;;;1.63;;
25191;SDS011;13143;50.924;5.320;2022-09-09T17:16:31;4.22;;;1.10;;
25191;SDS011;13143;50.924;5.320;2022-09-09T17:18:59;5.35;;;1.65;;
25191;SDS011;13143;50.924;5.320;2022-09-09T17:21:26;5.60;;;1.25;;
25191;SDS011;13143;50.924;5.320;2022-09-09T17:23:53;7.35;;;1.60;;
25191;SDS011;13143;50.924;5.320;2022-09-09T17:26:20;7.70;;;1.38;;
25191;SDS011;13143;50.924;5.320;2022-09-09T17:28:47;4.00;;;1.52;;
25191;SDS011;13143;50.924;5.320;2022-09-09T17:31:14;7.80;;;1.75;;
25191;SDS011;13143;50.924;5.320;2022-09-09T17:33:43;7.43;;;1.98;;
25191;SDS011;13143;50.924;5.320;2022-09-09T17:36:15;6.32;;;1.35;;